Luis Sánchez

Chief Scout - Racing Club
20 Feb 2028
Sunday
Process

Personality

Adaptability (3) Ambition (19) Controversy (16) Loyalty (2) Pressure (11) Professionalism (15) Sportsmanship (5) Temperament (16)

Profile

Coaching Style Democratic
License National A
Determination 5
Man Management 13
Motivating 13
Discipline 7
Job Satisfaction
91%
Fatigue
0%
Role Chief Scout
Wage 20.8K p/w
Contract 14.03.2028

Performance

Behaviour Good
Training Effectiveness
52%
Player Development
70%
Injury Prevention
65%
Tactical Implementation
75%

Recent Events

Contract negotiation started now
Assessed a player now
Contract negotiation started now
Assessed a player now
Assessed a player now
Contract negotiation started now
Assessed a player now
Contract negotiation started now

Currently Monitoring

196
Player Club Status Ability Confidence Watched Last Observed Latest Vote
Anton Stach Leeds United Active 149 / 143 40% 5 18.02.2028 -
Dodo Fiorentina Active 152 / 162 40% 2 18.02.2028 -
Francho Serrano Getafe Active 123 / 129 40% 1 18.02.2028 -
Wendel Zenit Active 143 / 151 40% 2 17.02.2028 -
Alfonso Pedraza Modena Active 143 / 152 40% 2 17.02.2028 -
Lucas Da Cunha Como Active 153 / 156 40% 1 17.02.2028 -
Shea Lacey Wolverhampton Active 132 / 129 40% 3 16.02.2028 -
Cristian Gutiérrez Las Palmas Active 130 / 137 40% 1 16.02.2028 -
Kirill Glebov CSKA Moscow Active 137 / 125 40% 1 16.02.2028 -
Alexandr Kovalenko Sochi Active 120 / 118 40% 1 16.02.2028 -
Emircan Gürlük Fakel Active 113 / 124 40% 2 15.02.2028 -
Dmitry Pestryakov Dinamo Moscow Active 119 / 116 40% 1 15.02.2028 -
Reuell Walters Luton Town Active 120 / 121 40% 1 15.02.2028 -
Nikita Saltykov Rotor Active 121 / 126 40% 2 14.02.2028 -
Prince Adu Kwabena Standard Liege Active 132 / 138 40% 1 14.02.2028 -
Matteo Prati Cagliari Active 140 / 147 40% 4 13.02.2028 -
Oumar Solet Udinese Active 152 / 149 40% 1 13.02.2028 -
Jesús Rodríguez Como Active 148 / 143 40% 1 12.02.2028 -
Matías Soulé AS Roma Active 159 / 160 40% 1 12.02.2028 -
Felipe Augusto Zenit Active 133 / 142 40% 1 12.02.2028 -
Matt Clarke Derby County Active 135 / 140 40% 1 09.02.2028 -
Ilja Vakhania Krasnodar Active 124 / 119 40% 1 09.02.2028 -
Youssouf Fofana AC Milan Active 156 / 164 40% 3 08.02.2028 -
Joško Gvardiol Napoli Active 173 / 164 40% 2 08.02.2028 -
Sergey Pinyaev Lokomotiv Moscow Active 130 / 129 40% 1 08.02.2028 -
Ruan Alanyaspor Active 132 / 135 40% 1 08.02.2028 -
Nico Paz Real Sociedad Active 166 / 167 40% 1 07.02.2028 -
Unai Gómez Udinese Active 140 / 144 40% 1 06.02.2028 -
Matheus Alves Lokomotiv Moscow Active 137 / 149 40% 1 06.02.2028 -
Christian Krasnodar Active 139 / 135 40% 9 02.02.2028 -
Jon Pacheco Real Sociedad Active 132 / 145 40% 2 02.02.2028 -
Arsen Adamov Akhmat Grozny Active 124 / 135 40% 1 02.02.2028 -
Martín Garay Tigre Active 122 / 124 40% 2 01.02.2028 -
Peru Nolaskoain Eibar Active 127 / 129 40% 3 31.01.2028 -
Victor Torp Coventry City Active 133 / 124 40% 2 31.01.2028 -
Jon Balda Real Sociedad Active 131 / 135 40% 1 31.01.2028 -
Alex Luna Instituto Active 132 / 134 40% 1 31.01.2028 -
Nicolás Tripichio San Lorenzo Active 128 / 127 40% 2 29.01.2028 -
Valentín Serrano Arsenal Active 116 / 117 40% 2 29.01.2028 -
Joaquín Gho Argentinos Juniors Active 130 / 126 40% 1 29.01.2028 -
Braian Aranda Agropecuario Argentino Active 115 / 121 40% 1 29.01.2028 -
Adrià Altimira Deportivo La Coruña Active 139 / 126 40% 2 25.01.2028 -
Kevin Paredes River Plate Active 134 / 134 40% 2 25.01.2028 -
Mauro Arambarri River Plate Active 151 / 146 40% 8 24.01.2028 -
Angeliño AS Roma Active 155 / 143 40% 3 24.01.2028 -
Arnau Comas Deportivo La Coruña Active 128 / 138 40% 2 24.01.2028 -
Tomás Silva Platense Active 130 / 131 40% 2 23.01.2028 -
Maximiliano Meléndez Chacarita Juniors Active 120 / 117 40% 1 23.01.2028 -
Vicente Poggi Godoy Cruz Active 124 / 126 40% 1 23.01.2028 -
Nacho Martín Gijón Active 122 / 129 40% 1 22.01.2028 -
Emanuel Coronel Rosario Central Active 132 / 124 40% 1 21.01.2028 -
Samuel Lucero Defensa y Justicia Active 121 / 118 40% 2 20.01.2028 -
Assane Diao Lazio Active 154 / 165 40% 2 20.01.2028 -
Hugo Rincón Athletic Bilbao Active 145 / 146 40% 1 20.01.2028 -
Iñaki Larthirigoyen San Telmo Active 124 / 121 40% 1 19.01.2028 -
Tomás Ferreyra Defensores Unidos Active 110 / 104 40% 1 19.01.2028 -
Lautaro Villegas Banfield Active 113 / 106 40% 1 19.01.2028 -
Emanuel Mammana Vélez Active 129 / 124 40% 1 17.01.2028 -
Tomás O'Connor Gimnasia y Esgrima Active 122 / 117 40% 1 17.01.2028 -
Santiago González Tigre Active 132 / 134 40% 4 16.01.2028 -
Álex Marchal Real Sociedad Active 117 / 125 40% 2 16.01.2028 -
Agustín Villalobos Godoy Cruz Active 107 / 106 40% 1 13.01.2028 -
Rubens Dinamo Moscow Active 131 / 131 40% 10 11.01.2028 -
Ramiro Hernandes Belgrano Active 119 / 131 40% 1 11.01.2028 -
Tomás Aranda Boca Juniors Active 113 / 114 40% 1 11.01.2028 -
José Mercado Union Magdalena Active 107 / 110 40% 1 10.01.2028 -
Tomás Porra Barracas Central Active 119 / 118 40% 1 09.01.2028 Needs More Info
Matías Bergara Nueva Chicago Active 111 / 113 40% 1 09.01.2028 -
Sheyko Studer Independiente Rivadavia Active 128 / 124 40% 1 06.01.2028 -
Mateo Mendoza Godoy Cruz Active 127 / 130 40% 2 04.01.2028 -
Lucas Souto Defensa y Justicia Active 130 / 123 40% 1 04.01.2028 -
Julio Alonso Huesca Active 122 / 116 40% 1 03.01.2028 -
Wílder Viera Instituto Lost 110 / 116 83% 1 20.12.2027 Approve
José Luis Palomino Talleres Lost 117 / 126 83% 1 01.12.2027 -
Donyell Malen AS Roma Active 150 / 145 40% 1 01.12.2027 -
Lorenzo Lucca Napoli Active 152 / 148 40% 1 01.12.2027 -
Levi Garcia Spartak Moscow Active 143 / 137 40% 1 01.12.2027 -
Giacomo Raspadori Atalanta Active 158 / 158 40% 1 30.11.2027 -
Juan Brunetta FC Copenhagen Lost 140 / 140 40% 1 30.11.2027 -
Ollie Watkins Estudiantes Active 157 / 151 40% 1 30.11.2027 -
Luca Babino Huracán Active 108 / 123 83% 1 28.06.2027 Approve
Facundo Bernal Betis Active 134 / 130 40% 8 29.05.2027 -
Gustavo Mantuan Zenit Active 130 / 132 40% 10 28.05.2027 -
Christ Inao Oulaï Fiorentina Active 137 / 133 40% 5 27.05.2027 -
Trai Hume Sunderland Active 134 / 137 40% 5 25.05.2027 -
Victor Parada Spartak Moscow Active 125 / 119 40% 8 23.05.2027 -
Nicolò Savona Nottingham Forest Active 142 / 141 40% 3 20.05.2027 -
Bafodé Diakité Bournemouth Active 139 / 151 40% 1 17.05.2027 -
Danil Glebov Dinamo Moscow Active 134 / 127 40% 7 14.05.2027 -
Josh King Chelsea Active 137 / 134 40% 6 08.05.2027 -
Alexandr Chernikov Krasnodar Active 132 / 120 40% 9 27.04.2027 -
Caspar Jander Southampton Active 129 / 140 40% 1 18.04.2027 -
Dean Huijsen Villarreal Active 142 / 152 40% 2 06.04.2027 -
Samú Al-Nassr Active 141 / 136 40% 8 05.04.2027 -
Zaydou Youssouf Al-Fateh Active 133 / 120 40% 4 18.03.2027 -
Mohammed Abu Al-Shamat Al-Qadisiyah Active 129 / 121 40% 2 15.03.2027 -
Dion Lopy Al-Ittihad Active 133 / 135 40% 4 10.03.2027 -
Valentin Atangana Al-Ahli Active 136 / 142 40% 2 05.03.2027 -
Alexandr Siljanov Lokomotiv Moscow Active 131 / 138 40% 3 26.02.2027 -
Mahamadou Doumbia Al-Ittihad Active 134 / 127 40% 2 23.02.2027 -
Ali Majrashi Al-Ahli Active 132 / 133 40% 1 22.02.2027 -
Matvey Kislyak CSKA Moscow Active 138 / 135 40% 3 20.02.2027 -
Rahim Ibrahim Slovan Bratislava Active 130 / 123 40% 4 18.02.2027 -
Gastón Álvarez Al-Qadisiyah Active 133 / 124 40% 1 06.02.2027 -
Bradley Tau SuperSport United Active 119 / 115 40% 2 29.01.2027 -
Eric Meza Estudiantes Active 128 / 118 40% 1 28.01.2027 -
Pedro Bicalho Qarabag Active 124 / 136 40% 1 28.01.2027 -
Ayrton Costa Boca Juniors Active 127 / 136 40% 1 15.01.2027 -
Nail Umyarov Spartak Moscow Active 121 / 120 40% 1 11.01.2027 -
Francisco Álvarez Argentinos Juniors Active 125 / 116 40% 3 06.01.2027 -
Damián Fernández Defensa y Justicia Active 126 / 122 40% 1 06.01.2027 -
Filip Kaloč Ludogorets Active 132 / 120 40% 1 02.01.2027 -
Jelle Bataille Maccabi Haifa Active 124 / 116 40% 1 01.01.2027 -
Franco Ibarra Rosario Central Active 134 / 123 40% 1 28.12.2026 -
Santiago Núñez Estudiantes Active 122 / 133 40% 1 27.12.2026 -
Mojmír Chytil NK Maribor Active 129 / 140 40% 1 14.12.2026 -
Manfred Ugalde Spartak Moscow Active 128 / 132 40% 1 14.12.2026 -
Felipe Peña Biafore Lanús Active 125 / 135 40% 1 06.12.2026 -
Galeno Al-Ahli Active 148 / 150 40% 1 30.11.2026 -
Breel Embolo Atlanta United FC Active 140 / 138 40% 8 29.11.2026 -
Renato Tapia Al Wasl Active 140 / 129 40% 2 29.11.2026 -
Jhon Jhon Zenit Active 130 / 122 40% 3 28.11.2026 -
Sergej Milinković-Savić Al-Hilal Active 163 / 155 40% 3 27.11.2026 -
Fabián Paris Saint-Germain Active 159 / 161 40% 5 25.11.2026 -
Rúben Neves Al-Hilal Active 145 / 145 40% 4 25.11.2026 -
Crysencio Summerville Al-Hilal Active 137 / 150 40% 3 25.11.2026 -
Oussama Idrissi Pachuca Active 136 / 131 40% 2 24.11.2026 -
Maxim Glushenkov Zenit Active 145 / 142 40% 3 23.11.2026 -
Ruben van Bommel Ferencvaros Active 132 / 139 40% 1 23.11.2026 -
Yves Bissouma Tottenham Active 148 / 138 40% 3 20.11.2026 -
Ryan Gauld Vancouver Whitecaps Active 134 / 141 40% 4 17.11.2026 -
Petar Stanić Ludogorets Active 137 / 128 40% 1 17.11.2026 -
Allan Saint-Maximin Charlotte Football Club Active 144 / 147 40% 4 13.11.2026 -
Romano Schmid Frosinone Active 148 / 130 40% 2 12.11.2026 -
Esequiel Barco Spartak Moscow Active 139 / 129 40% 1 12.11.2026 -
Musa Barrow Al-Khaleej Active 130 / 146 40% 4 11.11.2026 -
Oscar Al-Taawoun Active 141 / 139 40% 6 10.11.2026 Monitor
Houssem Aouar Al-Ittihad Active 146 / 137 40% 3 08.11.2026 -
Matt Freese New York City Active 134 / 133 40% 5 07.11.2026 -
Pedrinho Shakhtar Active 138 / 131 40% 3 05.11.2026 -
Zack Steffen Spartak Moscow Active 136 / 119 40% 1 05.11.2026 -
Jonathan Bamba Chicago Fire Active 136 / 129 40% 4 29.10.2026 -
Senny Mayulu Paris Saint-Germain Active 145 / 135 40% 2 27.10.2026 -
Álvaro Fernández Mallorca Active 139 / 141 40% 1 26.10.2026 -
Leon Bailey Olympiacos Active 144 / 139 40% 2 24.10.2026 -
Sergio Reguilón Inter Miami CF Active 133 / 142 40% 6 23.10.2026 -
Nikola Vasilj Al-Diriyah Active 139 / 142 40% 3 22.10.2026 -
Keisuke Osako Sanfrecce Hiroshima Active 139 / 128 40% 3 22.10.2026 -
Ryosuke Kojima Kashiwa Reysol Active 133 / 132 40% 1 22.10.2026 -
Gabriel Jesus Barcelona Active 157 / 153 40% 7 16.10.2026 -
Kerem Aktürkoğlu Fenerbahce Active 147 / 147 40% 5 14.10.2026 -
Barış Alper Yılmaz Galatasaray Active 143 / 150 40% 3 14.10.2026 -
Francesco Pio Esposito Inter Active 141 / 156 40% 1 14.10.2026 -
Rômulo RB Leipzig Active 140 / 143 40% 1 14.10.2026 -
Tomoki Hayakawa Kashima Antlers Active 139 / 132 40% 1 09.10.2026 -
Philip Billing FC Midtjylland Active 130 / 127 40% 1 07.10.2026 -
Petar Musa Adana Demirspor Active 138 / 125 40% 1 07.10.2026 -
Rubén Blanco Yokohama F. Marinos Active 137 / 126 40% 2 06.10.2026 -
Brais Méndez Columbus Crew Active 147 / 154 40% 2 01.10.2026 -
Eduard Spertsyan Al-Ahli Active 147 / 135 40% 2 29.09.2026 -
Jesús Angulo Tigres Active 137 / 131 40% 3 20.09.2026 -
Orbelín Pineda Monterrey Active 140 / 143 40% 1 20.09.2026 -
Erick Reyes Toluca Active 140 / 138 40% 1 20.09.2026 -
Maxim De Cuyper Brighton Active 136 / 135 40% 1 18.09.2026 -
Luis Romo Guadalajara Active 137 / 134 40% 3 17.09.2026 -
Leroy Sané Galatasaray Active 154 / 144 40% 4 17.09.2026 -
Patrick Berg Bodo/Glimt Active 138 / 147 40% 1 10.09.2026 -
Richard Ledezma Guadalajara Active 132 / 135 40% 1 06.09.2026 -
Václav Černý Besiktas Active 135 / 137 40% 1 02.09.2026 -
Alejandro Zendejas Club America Active 135 / 138 40% 4 29.08.2026 -
Rasmus Kristensen FC Midtjylland Active 135 / 133 40% 1 29.08.2026 -
Carlos Rodríguez Cruz Azul Active 132 / 129 40% 3 27.08.2026 -
Thorgan Witsel KV Oostende Active 130 / 147 40% 1 27.08.2026 -
Luca Duarte Arsenal Active 86 / 91 42% 1 / 1m 26.08.2026 -
Fernando Monetti Ferro Carril Oeste Active 125 / 125 30% 1 / 1m 26.08.2026 -
Predrag Rajković Racing Genk Active 142 / 145 40% 1 23.08.2026 -
Alan Sosa Tigre Active 120 / 120 30% 1 / 1m 19.08.2026 -
Danilo Ruiz Díaz Agropecuario Argentino Active 116 / 119 52% 1 / 1m 19.08.2026 -
Franco Aguirre San Telmo Active 105 / 105 30% 1 / 1m 19.08.2026 -
Facundo De La Vega Aldosivi Active 103 / 106 52% 1 / 1m 19.08.2026 -
Tobias Canale Almagro Active 84 / 89 30% 1 / 1m 19.08.2026 -
Uriel La Roza Defensa y Justicia Active 111 / 116 52% 1 / 1m 19.08.2026 -
Nahuel Denis Gimnasia y Esgrima Active 98 / 101 30% 1 / 1m 19.08.2026 -
Christian Tielemans KV Oostende Active 145 / 151 40% 1 18.08.2026 -
Lucas Torreira Galatasaray Active 148 / 148 40% 1 18.08.2026 -
João Palhinha Benfica Active 148 / 159 40% 1 14.08.2026 -
Stanislav Lobotka Galatasaray Active 160 / 152 40% 1 13.08.2026 -
João Gomes Aston Villa Active 140 / 127 40% 1 11.08.2026 -
Ricardo Horta Braga Active 154 / 160 40% 1 10.08.2026 -
Jan Bednarek Porto Active 150 / 139 40% 1 10.08.2026 -
Shota Fukuoka Gamba Osaka Active 129 / 125 40% 1 09.08.2026 -
Kasper Dolberg Ajax Active 140 / 148 40% 1 07.08.2026 -
Kyle Walker-Peters West Ham United Active 141 / 139 40% 1 04.08.2026 -
Álex Berenguer Athletic Bilbao Active 147 / 141 40% 1 02.08.2026 -
Marcos Llorente Atlético Madrid Active 150 / 152 40% 1 02.08.2026 -
Nikola Vlašić Torino Active 149 / 137 40% 1 02.08.2026 -